sensor_id;sensor_type;location;lat;lon;timestamp;P1;durP1;ratioP1;P2;durP2;ratioP2
22234;SDS011;11286;45.596;5.284;2022-10-17T00:01:00;5.63;;;4.20;;
22234;SDS011;11286;45.596;5.284;2022-10-17T00:03:26;5.03;;;4.32;;
22234;SDS011;11286;45.596;5.284;2022-10-17T00:05:51;7.30;;;4.13;;
22234;SDS011;11286;45.596;5.284;2022-10-17T00:08:17;7.05;;;4.20;;
22234;SDS011;11286;45.596;5.284;2022-10-17T00:10:43;4.40;;;4.00;;
22234;SDS011;11286;45.596;5.284;2022-10-17T00:13:10;6.15;;;4.50;;
22234;SDS011;11286;45.596;5.284;2022-10-17T00:15:36;7.18;;;4.55;;
22234;SDS011;11286;45.596;5.284;2022-10-17T00:18:02;4.82;;;4.28;;
22234;SDS011;11286;45.596;5.284;2022-10-17T00:20:28;6.35;;;4.45;;
22234;SDS011;11286;45.596;5.284;2022-10-17T00:22:56;7.68;;;4.22;;
22234;SDS011;11286;45.596;5.284;2022-10-17T00:25:22;5.10;;;4.25;;
22234;SDS011;11286;45.596;5.284;2022-10-17T00:27:48;7.30;;;4.38;;
22234;SDS011;11286;45.596;5.284;2022-10-17T00:30:14;6.05;;;4.10;;
22234;SDS011;11286;45.596;5.284;2022-10-17T00:32:40;6.60;;;4.28;;
22234;SDS011;11286;45.596;5.284;2022-10-17T00:35:06;7.78;;;3.92;;
22234;SDS011;11286;45.596;5.284;2022-10-17T00:37:33;8.07;;;4.22;;
22234;SDS011;11286;45.596;5.284;2022-10-17T00:39:59;4.93;;;4.32;;
22234;SDS011;11286;45.596;5.284;2022-10-17T00:42:25;8.82;;;4.40;;
22234;SDS011;11286;45.596;5.284;2022-10-17T00:44:59;5.30;;;4.10;;
22234;SDS011;11286;45.596;5.284;2022-10-17T00:47:24;8.95;;;3.78;;
22234;SDS011;11286;45.596;5.284;2022-10-17T00:49:50;4.93;;;3.75;;
22234;SDS011;11286;45.596;5.284;2022-10-17T00:52:18;4.90;;;4.10;;
22234;SDS011;11286;45.596;5.284;2022-10-17T00:54:53;4.50;;;3.17;;
22234;SDS011;11286;45.596;5.284;2022-10-17T00:57:21;5.60;;;3.78;;
22234;SDS011;11286;45.596;5.284;2022-10-17T00:59:48;7.07;;;4.22;;
22234;SDS011;11286;45.596;5.284;2022-10-17T01:02:18;6.65;;;4.00;;
22234;SDS011;11286;45.596;5.284;2022-10-17T01:04:45;4.75;;;4.10;;
22234;SDS011;11286;45.596;5.284;2022-10-17T01:07:13;5.40;;;4.13;;
22234;SDS011;11286;45.596;5.284;2022-10-17T01:09:38;4.90;;;4.40;;
22234;SDS011;11286;45.596;5.284;2022-10-17T01:17:33;5.32;;;3.88;;
22234;SDS011;11286;45.596;5.284;2022-10-17T01:28:31;8.77;;;4.13;;
22234;SDS011;11286;45.596;5.284;2022-10-17T01:31:15;5.35;;;4.10;;
22234;SDS011;11286;45.596;5.284;2022-10-17T01:33:59;4.85;;;4.25;;
22234;SDS011;11286;45.596;5.284;2022-10-17T01:36:36;6.13;;;4.03;;
22234;SDS011;11286;45.596;5.284;2022-10-17T01:39:09;5.88;;;4.30;;
22234;SDS011;11286;45.596;5.284;2022-10-17T01:41:51;5.57;;;4.20;;
22234;SDS011;11286;45.596;5.284;2022-10-17T01:47:29;7.68;;;4.40;;
22234;SDS011;11286;45.596;5.284;2022-10-17T01:50:06;4.97;;;4.03;;
22234;SDS011;11286;45.596;5.284;2022-10-17T01:53:01;4.68;;;4.20;;
22234;SDS011;11286;45.596;5.284;2022-10-17T01:55:34;7.38;;;4.55;;
22234;SDS011;11286;45.596;5.284;2022-10-17T01:58:13;6.60;;;4.30;;
22234;SDS011;11286;45.596;5.284;2022-10-17T02:00:45;6.10;;;4.50;;
22234;SDS011;11286;45.596;5.284;2022-10-17T02:03:13;4.70;;;4.18;;
22234;SDS011;11286;45.596;5.284;2022-10-17T02:05:43;6.20;;;4.43;;
22234;SDS011;11286;45.596;5.284;2022-10-17T02:08:10;5.57;;;4.25;;
22234;SDS011;11286;45.596;5.284;2022-10-17T02:16:34;4.53;;;4.03;;
22234;SDS011;11286;45.596;5.284;2022-10-17T02:27:24;5.25;;;4.43;;
22234;SDS011;11286;45.596;5.284;2022-10-17T02:33:10;8.27;;;4.38;;
22234;SDS011;11286;45.596;5.284;2022-10-17T02:35:42;6.22;;;4.10;;
22234;SDS011;11286;45.596;5.284;2022-10-17T02:38:11;6.22;;;3.97;;
22234;SDS011;11286;45.596;5.284;2022-10-17T02:40:38;5.57;;;4.53;;
22234;SDS011;11286;45.596;5.284;2022-10-17T02:43:05;5.10;;;4.35;;
22234;SDS011;11286;45.596;5.284;2022-10-17T02:45:31;5.32;;;4.43;;
22234;SDS011;11286;45.596;5.284;2022-10-17T02:56:10;5.88;;;4.18;;
22234;SDS011;11286;45.596;5.284;2022-10-17T02:58:41;7.25;;;4.05;;
22234;SDS011;11286;45.596;5.284;2022-10-17T03:01:09;4.85;;;4.20;;
22234;SDS011;11286;45.596;5.284;2022-10-17T03:03:37;4.68;;;4.18;;
22234;SDS011;11286;45.596;5.284;2022-10-17T03:06:02;5.90;;;4.45;;
22234;SDS011;11286;45.596;5.284;2022-10-17T03:08:28;6.05;;;4.72;;
22234;SDS011;11286;45.596;5.284;2022-10-17T03:10:54;6.28;;;4.72;;
22234;SDS011;11286;45.596;5.284;2022-10-17T03:13:19;6.30;;;4.57;;
22234;SDS011;11286;45.596;5.284;2022-10-17T03:15:45;5.32;;;4.65;;
22234;SDS011;11286;45.596;5.284;2022-10-17T03:18:11;8.98;;;3.92;;
22234;SDS011;11286;45.596;5.284;2022-10-17T03:20:37;5.18;;;4.03;;
22234;SDS011;11286;45.596;5.284;2022-10-17T03:23:02;6.28;;;4.07;;
22234;SDS011;11286;45.596;5.284;2022-10-17T03:25:28;7.72;;;4.47;;
22234;SDS011;11286;45.596;5.284;2022-10-17T03:27:54;6.07;;;4.20;;
22234;SDS011;11286;45.596;5.284;2022-10-17T03:30:23;4.28;;;3.88;;
22234;SDS011;11286;45.596;5.284;2022-10-17T03:32:49;6.63;;;4.40;;
22234;SDS011;11286;45.596;5.284;2022-10-17T03:35:14;7.20;;;4.45;;
22234;SDS011;11286;45.596;5.284;2022-10-17T03:37:40;5.95;;;4.32;;
22234;SDS011;11286;45.596;5.284;2022-10-17T03:40:06;6.75;;;3.83;;
22234;SDS011;11286;45.596;5.284;2022-10-17T03:42:32;5.63;;;4.00;;
22234;SDS011;11286;45.596;5.284;2022-10-17T03:44:57;4.53;;;3.80;;
22234;SDS011;11286;45.596;5.284;2022-10-17T03:47:23;4.25;;;3.83;;
22234;SDS011;11286;45.596;5.284;2022-10-17T03:49:48;5.93;;;3.90;;
22234;SDS011;11286;45.596;5.284;2022-10-17T03:52:14;7.45;;;4.38;;
22234;SDS011;11286;45.596;5.284;2022-10-17T03:54:40;5.93;;;4.30;;
22234;SDS011;11286;45.596;5.284;2022-10-17T03:57:06;4.63;;;3.83;;
22234;SDS011;11286;45.596;5.284;2022-10-17T03:59:31;5.68;;;4.40;;
22234;SDS011;11286;45.596;5.284;2022-10-17T04:01:57;4.97;;;4.40;;
22234;SDS011;11286;45.596;5.284;2022-10-17T04:04:23;5.15;;;3.85;;
22234;SDS011;11286;45.596;5.284;2022-10-17T04:06:48;5.93;;;4.13;;
22234;SDS011;11286;45.596;5.284;2022-10-17T04:09:14;5.97;;;4.28;;
22234;SDS011;11286;45.596;5.284;2022-10-17T04:11:40;7.65;;;4.43;;
22234;SDS011;11286;45.596;5.284;2022-10-17T04:14:05;6.35;;;4.32;;
22234;SDS011;11286;45.596;5.284;2022-10-17T04:16:31;6.72;;;4.10;;
22234;SDS011;11286;45.596;5.284;2022-10-17T04:18:57;8.13;;;4.50;;
22234;SDS011;11286;45.596;5.284;2022-10-17T04:21:24;4.53;;;3.85;;
22234;SDS011;11286;45.596;5.284;2022-10-17T04:23:55;7.50;;;4.40;;
22234;SDS011;11286;45.596;5.284;2022-10-17T04:26:21;9.18;;;4.85;;
22234;SDS011;11286;45.596;5.284;2022-10-17T04:28:47;8.75;;;4.50;;
22234;SDS011;11286;45.596;5.284;2022-10-17T04:31:14;5.03;;;3.65;;
22234;SDS011;11286;45.596;5.284;2022-10-17T04:33:39;4.90;;;4.25;;
22234;SDS011;11286;45.596;5.284;2022-10-17T04:36:06;5.82;;;4.07;;
22234;SDS011;11286;45.596;5.284;2022-10-17T04:38:37;6.55;;;4.22;;
22234;SDS011;11286;45.596;5.284;2022-10-17T04:41:04;5.18;;;4.20;;
22234;SDS011;11286;45.596;5.284;2022-10-17T04:43:33;6.10;;;4.10;;
22234;SDS011;11286;45.596;5.284;2022-10-17T04:46:00;5.47;;;4.10;;
22234;SDS011;11286;45.596;5.284;2022-10-17T04:48:28;6.07;;;4.05;;
22234;SDS011;11286;45.596;5.284;2022-10-17T04:50:55;7.57;;;4.22;;
22234;SDS011;11286;45.596;5.284;2022-10-17T04:53:32;5.15;;;4.38;;
22234;SDS011;11286;45.596;5.284;2022-10-17T04:56:00;7.53;;;4.13;;
22234;SDS011;11286;45.596;5.284;2022-10-17T04:58:29;4.50;;;4.10;;
22234;SDS011;11286;45.596;5.284;2022-10-17T05:00:54;6.80;;;4.07;;
22234;SDS011;11286;45.596;5.284;2022-10-17T05:03:20;8.57;;;4.57;;
22234;SDS011;11286;45.596;5.284;2022-10-17T05:05:46;6.65;;;4.47;;
22234;SDS011;11286;45.596;5.284;2022-10-17T05:08:12;5.70;;;4.25;;
22234;SDS011;11286;45.596;5.284;2022-10-17T05:10:41;5.70;;;4.13;;
22234;SDS011;11286;45.596;5.284;2022-10-17T05:13:08;4.53;;;4.07;;
22234;SDS011;11286;45.596;5.284;2022-10-17T05:15:34;8.93;;;4.20;;
22234;SDS011;11286;45.596;5.284;2022-10-17T05:18:00;8.43;;;4.43;;
22234;SDS011;11286;45.596;5.284;2022-10-17T05:20:27;8.13;;;4.18;;
22234;SDS011;11286;45.596;5.284;2022-10-17T05:22:52;6.00;;;4.15;;
22234;SDS011;11286;45.596;5.284;2022-10-17T05:25:18;5.60;;;3.80;;
22234;SDS011;11286;45.596;5.284;2022-10-17T05:27:44;7.95;;;4.80;;
22234;SDS011;11286;45.596;5.284;2022-10-17T05:30:10;7.05;;;4.57;;
22234;SDS011;11286;45.596;5.284;2022-10-17T05:32:36;5.03;;;4.40;;
22234;SDS011;11286;45.596;5.284;2022-10-17T05:35:02;5.18;;;4.32;;
22234;SDS011;11286;45.596;5.284;2022-10-17T05:37:28;6.18;;;4.80;;
22234;SDS011;11286;45.596;5.284;2022-10-17T05:39:54;7.05;;;4.20;;
22234;SDS011;11286;45.596;5.284;2022-10-17T05:42:20;7.40;;;4.20;;
22234;SDS011;11286;45.596;5.284;2022-10-17T05:44:46;6.82;;;4.57;;
22234;SDS011;11286;45.596;5.284;2022-10-17T05:47:11;4.55;;;4.10;;
22234;SDS011;11286;45.596;5.284;2022-10-17T05:49:37;6.45;;;4.32;;
22234;SDS011;11286;45.596;5.284;2022-10-17T05:52:02;4.70;;;4.00;;
22234;SDS011;11286;45.596;5.284;2022-10-17T05:54:28;8.15;;;4.55;;
22234;SDS011;11286;45.596;5.284;2022-10-17T05:56:54;5.57;;;4.53;;
22234;SDS011;11286;45.596;5.284;2022-10-17T05:59:20;6.32;;;4.93;;
22234;SDS011;11286;45.596;5.284;2022-10-17T06:01:46;6.88;;;4.30;;
22234;SDS011;11286;45.596;5.284;2022-10-17T06:04:12;7.55;;;4.93;;
22234;SDS011;11286;45.596;5.284;2022-10-17T06:06:38;7.40;;;4.50;;
22234;SDS011;11286;45.596;5.284;2022-10-17T06:09:04;7.35;;;4.85;;
22234;SDS011;11286;45.596;5.284;2022-10-17T06:11:30;4.60;;;4.20;;
22234;SDS011;11286;45.596;5.284;2022-10-17T06:13:56;6.28;;;4.28;;
22234;SDS011;11286;45.596;5.284;2022-10-17T06:16:21;6.90;;;4.32;;
22234;SDS011;11286;45.596;5.284;2022-10-17T06:18:47;4.82;;;4.32;;
22234;SDS011;11286;45.596;5.284;2022-10-17T06:21:14;5.07;;;3.80;;
22234;SDS011;11286;45.596;5.284;2022-10-17T06:23:41;8.93;;;4.00;;
22234;SDS011;11286;45.596;5.284;2022-10-17T06:26:07;6.55;;;4.55;;
22234;SDS011;11286;45.596;5.284;2022-10-17T06:28:33;4.57;;;4.15;;
22234;SDS011;11286;45.596;5.284;2022-10-17T06:31:10;5.03;;;4.15;;
22234;SDS011;11286;45.596;5.284;2022-10-17T06:33:37;5.97;;;4.25;;
22234;SDS011;11286;45.596;5.284;2022-10-17T06:36:04;6.22;;;4.30;;
22234;SDS011;11286;45.596;5.284;2022-10-17T06:38:31;5.80;;;4.22;;
22234;SDS011;11286;45.596;5.284;2022-10-17T06:41:01;9.20;;;4.82;;
22234;SDS011;11286;45.596;5.284;2022-10-17T06:43:38;6.88;;;3.80;;
22234;SDS011;11286;45.596;5.284;2022-10-17T06:46:07;8.18;;;4.57;;
22234;SDS011;11286;45.596;5.284;2022-10-17T06:48:32;5.95;;;4.30;;
22234;SDS011;11286;45.596;5.284;2022-10-17T06:51:01;6.57;;;4.30;;
22234;SDS011;11286;45.596;5.284;2022-10-17T06:53:29;5.72;;;4.30;;
22234;SDS011;11286;45.596;5.284;2022-10-17T06:55:56;6.32;;;4.40;;
22234;SDS011;11286;45.596;5.284;2022-10-17T06:58:31;6.25;;;4.30;;
22234;SDS011;11286;45.596;5.284;2022-10-17T07:00:59;5.25;;;4.32;;
22234;SDS011;11286;45.596;5.284;2022-10-17T07:03:26;8.60;;;4.20;;
22234;SDS011;11286;45.596;5.284;2022-10-17T07:05:53;5.60;;;4.70;;
22234;SDS011;11286;45.596;5.284;2022-10-17T07:08:20;5.32;;;4.63;;
22234;SDS011;11286;45.596;5.284;2022-10-17T07:10:46;4.65;;;4.22;;
22234;SDS011;11286;45.596;5.284;2022-10-17T07:13:12;7.07;;;5.03;;
22234;SDS011;11286;45.596;5.284;2022-10-17T07:15:38;4.88;;;4.45;;
22234;SDS011;11286;45.596;5.284;2022-10-17T07:18:04;8.57;;;4.93;;
22234;SDS011;11286;45.596;5.284;2022-10-17T07:20:30;4.63;;;4.05;;
22234;SDS011;11286;45.596;5.284;2022-10-17T07:22:55;6.07;;;4.55;;
22234;SDS011;11286;45.596;5.284;2022-10-17T07:25:21;5.65;;;4.25;;
22234;SDS011;11286;45.596;5.284;2022-10-17T07:27:47;5.88;;;4.43;;
22234;SDS011;11286;45.596;5.284;2022-10-17T07:30:13;5.63;;;4.10;;
22234;SDS011;11286;45.596;5.284;2022-10-17T07:32:39;4.82;;;4.25;;
22234;SDS011;11286;45.596;5.284;2022-10-17T07:35:04;3.97;;;3.58;;
22234;SDS011;11286;45.596;5.284;2022-10-17T07:37:30;5.18;;;3.92;;
22234;SDS011;11286;45.596;5.284;2022-10-17T07:39:56;5.43;;;4.15;;
22234;SDS011;11286;45.596;5.284;2022-10-17T07:42:22;6.68;;;3.65;;
22234;SDS011;11286;45.596;5.284;2022-10-17T07:44:47;6.60;;;3.85;;
22234;SDS011;11286;45.596;5.284;2022-10-17T07:47:13;5.97;;;3.72;;
22234;SDS011;11286;45.596;5.284;2022-10-17T07:49:39;5.07;;;3.70;;
22234;SDS011;11286;45.596;5.284;2022-10-17T07:52:08;4.95;;;3.42;;
22234;SDS011;11286;45.596;5.284;2022-10-17T07:54:37;4.88;;;3.20;;
22234;SDS011;11286;45.596;5.284;2022-10-17T07:57:03;5.07;;;3.55;;
22234;SDS011;11286;45.596;5.284;2022-10-17T07:59:28;7.07;;;3.50;;
22234;SDS011;11286;45.596;5.284;2022-10-17T08:01:54;3.88;;;3.30;;
22234;SDS011;11286;45.596;5.284;2022-10-17T08:04:20;4.80;;;3.35;;
22234;SDS011;11286;45.596;5.284;2022-10-17T08:06:47;4.22;;;3.05;;
22234;SDS011;11286;45.596;5.284;2022-10-17T08:09:13;4.32;;;3.08;;
22234;SDS011;11286;45.596;5.284;2022-10-17T08:11:38;3.65;;;3.10;;
22234;SDS011;11286;45.596;5.284;2022-10-17T08:14:04;4.38;;;3.22;;
22234;SDS011;11286;45.596;5.284;2022-10-17T08:16:31;3.55;;;3.03;;
22234;SDS011;11286;45.596;5.284;2022-10-17T08:18:56;5.93;;;2.97;;
22234;SDS011;11286;45.596;5.284;2022-10-17T08:21:22;3.47;;;2.92;;
22234;SDS011;11286;45.596;5.284;2022-10-17T08:23:47;3.75;;;3.08;;
22234;SDS011;11286;45.596;5.284;2022-10-17T08:26:17;4.35;;;2.97;;
22234;SDS011;11286;45.596;5.284;2022-10-17T08:28:44;4.75;;;2.95;;
22234;SDS011;11286;45.596;5.284;2022-10-17T08:31:11;4.25;;;2.92;;
22234;SDS011;11286;45.596;5.284;2022-10-17T08:33:39;5.50;;;3.13;;
22234;SDS011;11286;45.596;5.284;2022-10-17T08:36:05;4.85;;;3.00;;
22234;SDS011;11286;45.596;5.284;2022-10-17T08:38:32;4.88;;;3.03;;
22234;SDS011;11286;45.596;5.284;2022-10-17T08:41:00;3.95;;;2.50;;
22234;SDS011;11286;45.596;5.284;2022-10-17T08:46:19;3.13;;;2.83;;
22234;SDS011;11286;45.596;5.284;2022-10-17T08:48:45;4.50;;;2.97;;
22234;SDS011;11286;45.596;5.284;2022-10-17T08:51:23;4.47;;;3.10;;
22234;SDS011;11286;45.596;5.284;2022-10-17T08:56:44;3.47;;;3.10;;
22234;SDS011;11286;45.596;5.284;2022-10-17T08:59:25;5.70;;;2.97;;
22234;SDS011;11286;45.596;5.284;2022-10-17T09:08:33;3.78;;;3.08;;
22234;SDS011;11286;45.596;5.284;2022-10-17T09:10:52;5.15;;;2.90;;
22234;SDS011;11286;45.596;5.284;2022-10-17T09:19:02;3.20;;;2.78;;
22234;SDS011;11286;45.596;5.284;2022-10-17T09:21:45;4.05;;;2.80;;
22234;SDS011;11286;45.596;5.284;2022-10-17T09:24:37;4.10;;;2.80;;
22234;SDS011;11286;45.596;5.284;2022-10-17T09:32:44;3.13;;;2.83;;
22234;SDS011;11286;45.596;5.284;2022-10-17T09:35:12;5.68;;;2.95;;
22234;SDS011;11286;45.596;5.284;2022-10-17T09:37:38;3.33;;;2.85;;
22234;SDS011;11286;45.596;5.284;2022-10-17T09:40:06;3.00;;;2.67;;
22234;SDS011;11286;45.596;5.284;2022-10-17T09:42:36;4.10;;;2.92;;
22234;SDS011;11286;45.596;5.284;2022-10-17T09:48:18;3.33;;;2.53;;
22234;SDS011;11286;45.596;5.284;2022-10-17T09:50:28;3.65;;;2.53;;
22234;SDS011;11286;45.596;5.284;2022-10-17T09:52:59;5.18;;;3.20;;
22234;SDS011;11286;45.596;5.284;2022-10-17T09:55:36;3.72;;;2.70;;
22234;SDS011;11286;45.596;5.284;2022-10-17T09:58:06;3.58;;;2.83;;
22234;SDS011;11286;45.596;5.284;2022-10-17T10:00:34;4.47;;;2.70;;
22234;SDS011;11286;45.596;5.284;2022-10-17T10:03:24;2.70;;;2.50;;
22234;SDS011;11286;45.596;5.284;2022-10-17T10:05:58;3.72;;;2.63;;
22234;SDS011;11286;45.596;5.284;2022-10-17T10:08:25;3.25;;;2.58;;
22234;SDS011;11286;45.596;5.284;2022-10-17T10:11:02;2.75;;;2.53;;
22234;SDS011;11286;45.596;5.284;2022-10-17T10:13:30;3.05;;;2.70;;
22234;SDS011;11286;45.596;5.284;2022-10-17T10:18:41;4.35;;;2.60;;
22234;SDS011;11286;45.596;5.284;2022-10-17T10:23:33;3.45;;;2.80;;
22234;SDS011;11286;45.596;5.284;2022-10-17T10:26:04;4.35;;;3.03;;
22234;SDS011;11286;45.596;5.284;2022-10-17T10:29:00;3.25;;;2.75;;
22234;SDS011;11286;45.596;5.284;2022-10-17T10:31:30;3.25;;;2.50;;
22234;SDS011;11286;45.596;5.284;2022-10-17T10:34:02;3.63;;;2.45;;
22234;SDS011;11286;45.596;5.284;2022-10-17T10:39:21;4.13;;;2.70;;
22234;SDS011;11286;45.596;5.284;2022-10-17T10:41:48;2.75;;;2.40;;
22234;SDS011;11286;45.596;5.284;2022-10-17T10:44:14;4.80;;;2.55;;
22234;SDS011;11286;45.596;5.284;2022-10-17T10:46:42;3.00;;;2.58;;
22234;SDS011;11286;45.596;5.284;2022-10-17T10:49:26;3.65;;;2.40;;
22234;SDS011;11286;45.596;5.284;2022-10-17T10:51:54;4.22;;;2.53;;
22234;SDS011;11286;45.596;5.284;2022-10-17T10:54:31;2.90;;;2.50;;
22234;SDS011;11286;45.596;5.284;2022-10-17T10:57:02;4.63;;;2.58;;
22234;SDS011;11286;45.596;5.284;2022-10-17T11:05:19;3.00;;;2.53;;
22234;SDS011;11286;45.596;5.284;2022-10-17T11:07:57;2.58;;;2.28;;
22234;SDS011;11286;45.596;5.284;2022-10-17T11:10:48;3.17;;;2.45;;
22234;SDS011;11286;45.596;5.284;2022-10-17T11:13:42;4.00;;;2.42;;
22234;SDS011;11286;45.596;5.284;2022-10-17T11:16:48;5.30;;;2.45;;
22234;SDS011;11286;45.596;5.284;2022-10-17T11:19:34;4.18;;;2.83;;
22234;SDS011;11286;45.596;5.284;2022-10-17T11:22:15;4.43;;;2.22;;
22234;SDS011;11286;45.596;5.284;2022-10-17T11:24:52;3.75;;;2.38;;
22234;SDS011;11286;45.596;5.284;2022-10-17T11:27:23;2.42;;;2.22;;
22234;SDS011;11286;45.596;5.284;2022-10-17T11:29:50;4.72;;;2.40;;
22234;SDS011;11286;45.596;5.284;2022-10-17T11:34:45;3.05;;;2.50;;
22234;SDS011;11286;45.596;5.284;2022-10-17T11:37:22;2.65;;;2.42;;
22234;SDS011;11286;45.596;5.284;2022-10-17T11:39:53;5.65;;;2.40;;
22234;SDS011;11286;45.596;5.284;2022-10-17T11:42:29;3.78;;;2.30;;
22234;SDS011;11286;45.596;5.284;2022-10-17T11:45:13;2.97;;;2.17;;
22234;SDS011;11286;45.596;5.284;2022-10-17T11:47:49;2.40;;;2.20;;
22234;SDS011;11286;45.596;5.284;2022-10-17T11:50:31;7.05;;;2.67;;
22234;SDS011;11286;45.596;5.284;2022-10-17T11:53:01;3.25;;;2.90;;
22234;SDS011;11286;45.596;5.284;2022-10-17T11:55:32;3.97;;;2.80;;
22234;SDS011;11286;45.596;5.284;2022-10-17T12:00:51;3.10;;;2.30;;
22234;SDS011;11286;45.596;5.284;2022-10-17T12:12:25;3.90;;;2.60;;
22234;SDS011;11286;45.596;5.284;2022-10-17T12:14:52;3.50;;;2.50;;
22234;SDS011;11286;45.596;5.284;2022-10-17T12:22:48;2.80;;;2.15;;
22234;SDS011;11286;45.596;5.284;2022-10-17T12:25:19;4.22;;;2.72;;
22234;SDS011;11286;45.596;5.284;2022-10-17T12:30:30;3.60;;;2.20;;
22234;SDS011;11286;45.596;5.284;2022-10-17T12:35:36;2.42;;;2.17;;
22234;SDS011;11286;45.596;5.284;2022-10-17T12:38:12;4.43;;;2.40;;
22234;SDS011;11286;45.596;5.284;2022-10-17T12:48:12;3.08;;;2.55;;
22234;SDS011;11286;45.596;5.284;2022-10-17T12:53:37;2.65;;;2.42;;
22234;SDS011;11286;45.596;5.284;2022-10-17T12:56:19;5.95;;;3.00;;
22234;SDS011;11286;45.596;5.284;2022-10-17T12:59:06;3.58;;;2.80;;
22234;SDS011;11286;45.596;5.284;2022-10-17T13:01:37;4.80;;;3.10;;
22234;SDS011;11286;45.596;5.284;2022-10-17T13:04:08;5.70;;;2.85;;
22234;SDS011;11286;45.596;5.284;2022-10-17T13:06:35;3.17;;;2.72;;
22234;SDS011;11286;45.596;5.284;2022-10-17T13:09:07;5.82;;;2.72;;
22234;SDS011;11286;45.596;5.284;2022-10-17T13:12:20;4.78;;;2.70;;
22234;SDS011;11286;45.596;5.284;2022-10-17T13:14:50;4.65;;;2.90;;
22234;SDS011;11286;45.596;5.284;2022-10-17T13:17:22;3.20;;;2.78;;
22234;SDS011;11286;45.596;5.284;2022-10-17T13:19:48;6.07;;;2.35;;
22234;SDS011;11286;45.596;5.284;2022-10-17T13:22:23;3.00;;;2.70;;
22234;SDS011;11286;45.596;5.284;2022-10-17T13:24:52;5.72;;;2.80;;
22234;SDS011;11286;45.596;5.284;2022-10-17T13:27:31;2.75;;;2.53;;
22234;SDS011;11286;45.596;5.284;2022-10-17T13:29:59;3.22;;;2.60;;
22234;SDS011;11286;45.596;5.284;2022-10-17T13:32:36;3.40;;;2.90;;
22234;SDS011;11286;45.596;5.284;2022-10-17T13:35:11;4.38;;;2.97;;
22234;SDS011;11286;45.596;5.284;2022-10-17T13:37:42;4.10;;;2.75;;
22234;SDS011;11286;45.596;5.284;2022-10-17T13:40:17;4.22;;;2.80;;
22234;SDS011;11286;45.596;5.284;2022-10-17T13:42:54;5.30;;;2.50;;
22234;SDS011;11286;45.596;5.284;2022-10-17T13:45:31;4.93;;;2.75;;
22234;SDS011;11286;45.596;5.284;2022-10-17T13:48:02;5.32;;;3.13;;
22234;SDS011;11286;45.596;5.284;2022-10-17T13:50:41;2.97;;;2.67;;
22234;SDS011;11286;45.596;5.284;2022-10-17T13:53:14;4.28;;;2.70;;
22234;SDS011;11286;45.596;5.284;2022-10-17T13:55:50;4.10;;;2.80;;
22234;SDS011;11286;45.596;5.284;2022-10-17T13:58:16;3.58;;;2.80;;
22234;SDS011;11286;45.596;5.284;2022-10-17T14:00:45;6.70;;;3.00;;
22234;SDS011;11286;45.596;5.284;2022-10-17T14:03:13;3.72;;;2.67;;
22234;SDS011;11286;45.596;5.284;2022-10-17T14:08:24;2.70;;;2.47;;
22234;SDS011;11286;45.596;5.284;2022-10-17T14:10:50;3.85;;;2.50;;
22234;SDS011;11286;45.596;5.284;2022-10-17T14:13:22;3.40;;;2.47;;
22234;SDS011;11286;45.596;5.284;2022-10-17T14:15:51;5.43;;;3.03;;
22234;SDS011;11286;45.596;5.284;2022-10-17T14:18:20;4.50;;;2.63;;
22234;SDS011;11286;45.596;5.284;2022-10-17T14:20:49;6.55;;;2.92;;
22234;SDS011;11286;45.596;5.284;2022-10-17T14:24:12;4.43;;;2.55;;
22234;SDS011;11286;45.596;5.284;2022-10-17T14:26:17;2.97;;;2.50;;
22234;SDS011;11286;45.596;5.284;2022-10-17T14:28:46;3.08;;;2.80;;
22234;SDS011;11286;45.596;5.284;2022-10-17T14:31:33;7.38;;;3.38;;
22234;SDS011;11286;45.596;5.284;2022-10-17T14:34:00;3.92;;;3.17;;
22234;SDS011;11286;45.596;5.284;2022-10-17T14:36:29;4.15;;;2.83;;
22234;SDS011;11286;45.596;5.284;2022-10-17T14:38:57;4.13;;;2.92;;
22234;SDS011;11286;45.596;5.284;2022-10-17T14:41:24;3.92;;;3.05;;
22234;SDS011;11286;45.596;5.284;2022-10-17T14:43:56;3.38;;;2.67;;
22234;SDS011;11286;45.596;5.284;2022-10-17T14:46:24;3.40;;;2.83;;
22234;SDS011;11286;45.596;5.284;2022-10-17T14:48:51;4.10;;;2.90;;
22234;SDS011;11286;45.596;5.284;2022-10-17T14:51:19;3.45;;;3.00;;
22234;SDS011;11286;45.596;5.284;2022-10-17T14:54:12;5.78;;;3.10;;
22234;SDS011;11286;45.596;5.284;2022-10-17T14:56:48;3.30;;;3.00;;
22234;SDS011;11286;45.596;5.284;2022-10-17T14:59:16;4.35;;;2.97;;
22234;SDS011;11286;45.596;5.284;2022-10-17T15:01:46;3.70;;;2.80;;
22234;SDS011;11286;45.596;5.284;2022-10-17T15:04:15;3.30;;;3.00;;
22234;SDS011;11286;45.596;5.284;2022-10-17T15:06:42;7.20;;;2.90;;
22234;SDS011;11286;45.596;5.284;2022-10-17T15:09:09;6.03;;;2.90;;
22234;SDS011;11286;45.596;5.284;2022-10-17T15:11:35;4.78;;;2.88;;
22234;SDS011;11286;45.596;5.284;2022-10-17T15:14:01;5.22;;;3.00;;
22234;SDS011;11286;45.596;5.284;2022-10-17T15:16:31;4.65;;;2.72;;
22234;SDS011;11286;45.596;5.284;2022-10-17T15:18:57;2.60;;;2.40;;
22234;SDS011;11286;45.596;5.284;2022-10-17T15:21:24;4.68;;;2.60;;
22234;SDS011;11286;45.596;5.284;2022-10-17T15:23:49;4.72;;;2.60;;
22234;SDS011;11286;45.596;5.284;2022-10-17T15:26:17;5.10;;;2.60;;
22234;SDS011;11286;45.596;5.284;2022-10-17T15:28:48;4.80;;;3.28;;
22234;SDS011;11286;45.596;5.284;2022-10-17T15:31:15;3.63;;;2.85;;
22234;SDS011;11286;45.596;5.284;2022-10-17T15:33:43;5.60;;;2.90;;
22234;SDS011;11286;45.596;5.284;2022-10-17T15:36:47;4.78;;;2.75;;
22234;SDS011;11286;45.596;5.284;2022-10-17T15:39:05;6.70;;;3.30;;
22234;SDS011;11286;45.596;5.284;2022-10-17T15:41:31;4.75;;;2.75;;
22234;SDS011;11286;45.596;5.284;2022-10-17T15:43:57;5.47;;;2.63;;
22234;SDS011;11286;45.596;5.284;2022-10-17T15:46:24;3.35;;;2.67;;
22234;SDS011;11286;45.596;5.284;2022-10-17T15:48:55;5.03;;;2.92;;
22234;SDS011;11286;45.596;5.284;2022-10-17T15:51:21;6.45;;;2.78;;
22234;SDS011;11286;45.596;5.284;2022-10-17T15:53:47;5.50;;;3.03;;
22234;SDS011;11286;45.596;5.284;2022-10-17T15:56:21;3.33;;;2.90;;
22234;SDS011;11286;45.596;5.284;2022-10-17T15:59:00;4.85;;;2.90;;
22234;SDS011;11286;45.596;5.284;2022-10-17T16:01:28;6.05;;;2.90;;
22234;SDS011;11286;45.596;5.284;2022-10-17T16:03:55;6.22;;;2.83;;
22234;SDS011;11286;45.596;5.284;2022-10-17T16:06:21;3.70;;;2.72;;
22234;SDS011;11286;45.596;5.284;2022-10-17T16:08:48;5.63;;;2.85;;
22234;SDS011;11286;45.596;5.284;2022-10-17T16:11:26;5.38;;;3.28;;
22234;SDS011;11286;45.596;5.284;2022-10-17T16:13:55;3.35;;;3.05;;
22234;SDS011;11286;45.596;5.284;2022-10-17T16:16:23;5.43;;;3.10;;
22234;SDS011;11286;45.596;5.284;2022-10-17T16:18:48;4.57;;;2.80;;
22234;SDS011;11286;45.596;5.284;2022-10-17T16:21:14;4.43;;;2.85;;
22234;SDS011;11286;45.596;5.284;2022-10-17T16:23:41;4.65;;;3.25;;
22234;SDS011;11286;45.596;5.284;2022-10-17T16:26:08;4.55;;;3.10;;
22234;SDS011;11286;45.596;5.284;2022-10-17T16:28:34;5.22;;;3.30;;
22234;SDS011;11286;45.596;5.284;2022-10-17T16:31:00;5.93;;;3.17;;
22234;SDS011;11286;45.596;5.284;2022-10-17T16:33:26;7.97;;;4.15;;
22234;SDS011;11286;45.596;5.284;2022-10-17T16:35:51;4.60;;;3.10;;
22234;SDS011;11286;45.596;5.284;2022-10-17T16:38:17;6.60;;;3.30;;
22234;SDS011;11286;45.596;5.284;2022-10-17T16:40:42;5.65;;;2.80;;
22234;SDS011;11286;45.596;5.284;2022-10-17T16:43:11;3.80;;;2.97;;
22234;SDS011;11286;45.596;5.284;2022-10-17T16:45:37;7.00;;;2.90;;
22234;SDS011;11286;45.596;5.284;2022-10-17T16:48:04;6.45;;;3.22;;
22234;SDS011;11286;45.596;5.284;2022-10-17T16:50:30;3.38;;;3.00;;
22234;SDS011;11286;45.596;5.284;2022-10-17T16:52:59;6.35;;;2.70;;
22234;SDS011;11286;45.596;5.284;2022-10-17T16:55:26;3.75;;;3.08;;
22234;SDS011;11286;45.596;5.284;2022-10-17T16:57:52;4.05;;;3.10;;
22234;SDS011;11286;45.596;5.284;2022-10-17T17:00:17;4.10;;;2.72;;
22234;SDS011;11286;45.596;5.284;2022-10-17T17:02:43;5.05;;;2.63;;